Time;durP1;ratioP1;P1;durP2;ratioP2;P2;SDS_P1;SDS_P2;PMS_P1;PMS_P2;Temp;Humidity;BMP_temperature;BMP_pressure;BME280_temperature;BME280_humidity;BME280_pressure;Samples;Min_cycle;Max_cycle;Signal;HPM_P1;HPM_P2
2023/07/23 00:01:27;;;;;;;20.20;6.75;;;24.40;99.90;;;;;;5072294;28;20080;-56
2023/07/23 00:04:31;;;;;;;14.70;5.80;;;24.40;99.90;;;;;;5071947;28;20047;-54
2023/07/23 00:07:35;;;;;;;15.98;6.13;;;24.40;99.90;;;;;;5066050;28;20047;-52
2023/07/23 00:10:40;;;;;;;12.73;5.40;;;24.40;99.90;;;;;;5072119;28;20518;-56
2023/07/23 00:13:43;;;;;;;15.57;5.88;;;24.30;99.90;;;;;;5071993;28;20503;-49
2023/07/23 00:16:47;;;;;;;11.10;5.70;;;24.30;99.90;;;;;;5072315;28;20058;-54
2023/07/23 00:19:51;;;;;;;11.93;5.82;;;24.20;99.90;;;;;;5072070;28;20047;-53
2023/07/23 00:22:55;;;;;;;10.52;5.30;;;24.10;99.90;;;;;;5071890;28;20509;-50
2023/07/23 00:25:59;;;;;;;12.75;5.60;;;24.10;99.90;;;;;;5071575;28;20055;-52
2023/07/23 00:29:03;;;;;;;11.75;5.20;;;24.00;99.90;;;;;;5071941;28;20043;-52
2023/07/23 00:32:08;;;;;;;13.43;5.22;;;24.00;99.90;;;;;;5071451;28;20533;-55
2023/07/23 00:35:12;;;;;;;11.70;6.15;;;24.00;99.90;;;;;;5071506;28;20114;-50
2023/07/23 00:38:16;;;;;;;11.50;5.78;;;23.80;99.90;;;;;;5072004;28;20522;-50
2023/07/23 00:41:20;;;;;;;13.52;6.28;;;23.60;99.90;;;;;;5071639;28;20146;-53
2023/07/23 00:44:24;;;;;;;14.57;6.50;;;23.50;99.90;;;;;;5071688;28;20411;-52
2023/07/23 00:47:27;;;;;;;16.63;5.50;;;23.30;99.90;;;;;;5071595;28;20040;-53
2023/07/23 00:50:32;;;;;;;17.00;6.63;;;23.20;99.90;;;;;;5058526;28;20063;-51
2023/07/23 00:53:36;;;;;;;18.40;6.60;;;23.10;99.90;;;;;;5071343;28;20044;-50
2023/07/23 00:56:43;;;;;;;14.38;5.93;;;23.10;99.90;;;;;;5071340;28;20060;-52
2023/07/23 00:59:46;;;;;;;17.83;6.18;;;23.10;99.90;;;;;;5059232;28;20052;-51
2023/07/23 01:02:50;;;;;;;14.63;5.85;;;23.00;99.90;;;;;;5071151;28;20036;-51
2023/07/23 01:06:00;;;;;;;13.60;6.03;;;23.00;99.90;;;;;;5058466;28;20044;-50
2023/07/23 01:09:06;;;;;;;9.52;5.72;;;22.90;99.90;;;;;;5071161;28;20051;-50
2023/07/23 01:12:10;;;;;;;12.13;5.75;;;22.90;99.90;;;;;;5058670;28;20075;-52
2023/07/23 01:15:14;;;;;;;16.63;6.13;;;22.80;99.90;;;;;;5058373;28;20062;-54
2023/07/23 01:18:19;;;;;;;13.90;6.07;;;22.80;99.90;;;;;;5070938;28;20047;-50
2023/07/23 01:21:23;;;;;;;14.52;6.65;;;22.80;99.90;;;;;;5070903;28;20051;-50
2023/07/23 01:24:28;;;;;;;14.32;6.25;;;22.80;99.90;;;;;;5070799;28;20067;-51
2023/07/23 01:27:32;;;;;;;9.68;6.43;;;22.70;99.90;;;;;;5071025;28;20051;-51
2023/07/23 01:30:36;;;;;;;11.80;6.75;;;22.80;99.90;;;;;;5070622;28;20047;-50
2023/07/23 01:33:41;;;;;;;11.30;5.18;;;22.80;99.90;;;;;;5058402;28;20036;-51
2023/07/23 01:36:46;;;;;;;10.07;4.88;;;22.70;99.90;;;;;;5070590;28;20521;-50
2023/07/23 01:39:50;;;;;;;8.55;4.82;;;22.70;99.90;;;;;;5058485;28;20048;-49
2023/07/23 01:42:55;;;;;;;13.32;5.30;;;22.70;99.90;;;;;;5058356;28;20036;-49
2023/07/23 01:45:59;;;;;;;13.88;6.20;;;22.60;99.90;;;;;;5070352;28;20043;-54
2023/07/23 01:49:03;;;;;;;14.73;6.20;;;22.60;99.90;;;;;;5070740;28;20043;-54
2023/07/23 01:52:07;;;;;;;15.20;5.95;;;22.50;99.90;;;;;;5070455;28;20052;-50
2023/07/23 01:55:11;;;;;;;15.18;6.50;;;22.50;99.90;;;;;;5070210;28;20601;-51
2023/07/23 01:58:14;;;;;;;13.50;6.55;;;22.50;99.90;;;;;;5070811;28;20052;-49
2023/07/23 02:01:18;;;;;;;16.98;6.93;;;22.40;99.90;;;;;;5057506;28;20047;-50
2023/07/23 02:04:22;;;;;;;13.48;6.45;;;22.30;99.90;;;;;;5058153;28;20509;-51
2023/07/23 02:07:26;;;;;;;17.50;7.00;;;22.30;99.90;;;;;;5058347;28;20510;-51
2023/07/23 02:10:30;;;;;;;13.38;5.70;;;22.30;99.90;;;;;;5070612;28;20039;-49
2023/07/23 02:13:34;;;;;;;18.52;6.43;;;22.30;99.90;;;;;;5070428;28;20051;-51
2023/07/23 02:16:38;;;;;;;10.95;5.97;;;22.30;99.90;;;;;;5058029;28;20406;-49
2023/07/23 02:19:42;;;;;;;10.23;5.85;;;22.30;99.90;;;;;;5058288;28;20047;-52
2023/07/23 02:22:47;;;;;;;12.55;6.28;;;22.20;99.90;;;;;;5070230;28;20064;-50
2023/07/23 02:25:51;;;;;;;14.85;6.65;;;22.10;99.90;;;;;;5070259;28;20199;-50
2023/07/23 02:28:55;;;;;;;12.13;6.38;;;22.10;99.90;;;;;;5058225;28;20040;-52
2023/07/23 02:31:59;;;;;;;10.38;5.82;;;22.10;99.90;;;;;;5069963;28;20064;-50
2023/07/23 02:35:04;;;;;;;11.40;5.82;;;22.10;99.90;;;;;;5070468;28;20418;-53
2023/07/23 02:38:08;;;;;;;11.80;6.00;;;22.00;99.90;;;;;;5070137;28;20055;-55
2023/07/23 02:41:12;;;;;;;9.63;5.63;;;22.00;99.90;;;;;;5057902;28;20055;-51
2023/07/23 02:44:16;;;;;;;16.92;6.60;;;22.00;99.90;;;;;;5070428;28;20051;-51
2023/07/23 02:47:20;;;;;;;11.93;5.57;;;22.00;99.90;;;;;;5069442;28;20087;-49
2023/07/23 02:50:25;;;;;;;13.10;6.18;;;22.00;99.90;;;;;;5069940;28;20048;-53
2023/07/23 02:53:29;;;;;;;12.02;5.75;;;22.00;99.90;;;;;;5057379;28;20056;-50
2023/07/23 02:56:33;;;;;;;9.55;5.00;;;22.00;99.90;;;;;;5057140;28;20043;-51
2023/07/23 02:59:37;;;;;;;8.85;5.18;;;22.10;99.90;;;;;;5069875;28;20040;-51
2023/07/23 03:02:41;;;;;;;12.77;5.68;;;22.10;99.90;;;;;;5057150;28;20403;-50
2023/07/23 03:05:45;;;;;;;13.18;5.50;;;22.10;99.90;;;;;;5057166;28;20423;-52
2023/07/23 03:08:49;;;;;;;9.63;4.80;;;22.00;99.90;;;;;;5070015;28;20048;-49
2023/07/23 03:11:53;;;;;;;10.98;5.95;;;22.10;99.90;;;;;;5069485;28;20525;-50
2023/07/23 03:14:57;;;;;;;13.35;5.50;;;22.10;99.90;;;;;;5073479;28;20038;-50
2023/07/23 03:18:02;;;;;;;12.50;6.78;;;22.00;99.90;;;;;;5073169;28;20126;-51
2023/07/23 03:21:06;;;;;;;14.98;6.60;;;21.90;99.90;;;;;;5073643;28;20055;-52
2023/07/23 03:24:09;;;;;;;15.32;6.40;;;21.80;99.90;;;;;;5073478;28;20044;-50
2023/07/23 03:27:13;;;;;;;12.82;6.85;;;21.80;99.90;;;;;;5073030;28;20040;-53
2023/07/23 03:30:18;;;;;;;11.38;6.25;;;21.70;99.90;;;;;;5073186;28;20051;-53
2023/07/23 03:33:22;;;;;;;16.70;7.78;;;21.60;99.90;;;;;;5060550;28;20434;-50
2023/07/23 03:36:27;;;;;;;12.52;7.82;;;21.60;99.90;;;;;;5059879;28;20051;-51
2023/07/23 03:39:31;;;;;;;21.60;7.25;;;21.40;99.90;;;;;;5073215;28;20197;-52
2023/07/23 03:42:35;;;;;;;11.93;6.78;;;21.40;99.90;;;;;;5060219;28;20051;-55
2023/07/23 03:45:39;;;;;;;15.48;7.03;;;21.30;99.90;;;;;;5060352;28;20043;-51
2023/07/23 03:48:43;;;;;;;14.18;6.63;;;21.30;99.90;;;;;;5060364;28;20044;-50
2023/07/23 03:51:46;;;;;;;15.15;7.22;;;21.30;99.90;;;;;;5072150;28;20043;-53
2023/07/23 03:54:51;;;;;;;19.40;7.88;;;21.30;99.90;;;;;;5072307;28;20407;-51
2023/07/23 03:57:54;;;;;;;19.73;8.07;;;21.30;99.90;;;;;;5072240;28;20036;-54
2023/07/23 04:00:58;;;;;;;17.63;7.80;;;21.20;99.90;;;;;;5072630;28;20040;-53
2023/07/23 04:04:02;;;;;;;14.10;7.47;;;21.10;99.90;;;;;;5059939;28;20415;-54
2023/07/23 04:07:07;;;;;;;20.50;8.65;;;21.10;99.90;;;;;;5072430;28;20056;-52
2023/07/23 04:10:11;;;;;;;17.70;8.63;;;21.10;99.90;;;;;;5060168;28;20118;-54
2023/07/23 04:13:15;;;;;;;17.20;7.88;;;21.10;99.90;;;;;;5072412;28;20043;-52
2023/07/23 04:16:19;;;;;;;19.83;8.30;;;21.20;99.90;;;;;;5060086;28;20047;-50
2023/07/23 04:19:23;;;;;;;18.30;7.47;;;21.30;99.90;;;;;;5060039;28;20510;-50
2023/07/23 04:22:27;;;;;;;14.98;7.03;;;21.30;99.90;;;;;;5059929;28;20067;-51
2023/07/23 04:25:31;;;;;;;18.33;7.75;;;21.30;99.90;;;;;;5071476;28;20047;-50
2023/07/23 04:28:35;;;;;;;25.88;7.68;;;21.40;99.90;;;;;;5071956;28;20043;-53
2023/07/23 04:31:40;;;;;;;13.63;7.15;;;21.40;99.90;;;;;;5071694;28;20051;-51
2023/07/23 04:34:44;;;;;;;18.10;8.52;;;21.50;99.90;;;;;;5059742;28;20047;-51
2023/07/23 04:37:49;;;;;;;15.80;7.70;;;21.60;99.90;;;;;;5071969;28;20593;-49
2023/07/23 04:40:52;;;;;;;18.38;8.80;;;21.60;99.90;;;;;;5072199;28;20051;-49
2023/07/23 04:43:57;;;;;;;16.40;8.02;;;21.60;99.90;;;;;;5071917;28;20051;-54
2023/07/23 04:47:01;;;;;;;12.75;7.65;;;21.60;99.90;;;;;;5071929;28;20079;-50
2023/07/23 04:50:05;;;;;;;16.20;7.75;;;21.50;99.90;;;;;;5059264;28;20047;-51
2023/07/23 04:53:10;;;;;;;16.38;6.95;;;21.50;99.90;;;;;;5071669;28;20048;-52
2023/07/23 04:56:14;;;;;;;12.43;6.57;;;21.40;99.90;;;;;;5051629;28;20048;-49
2023/07/23 04:59:18;;;;;;;14.60;7.22;;;21.40;99.90;;;;;;5051507;28;20043;-53
2023/07/23 05:02:22;;;;;;;16.48;7.32;;;21.50;99.90;;;;;;5051413;28;20036;-50
2023/07/23 05:05:26;;;;;;;16.05;7.07;;;21.50;99.90;;;;;;5073813;22;20047;-62
2023/07/23 05:08:31;;;;;;;12.25;6.85;;;21.60;99.90;;;;;;5063758;28;20071;-62
2023/07/23 05:11:35;;;;;;;14.15;6.65;;;21.60;99.90;;;;;;5071047;28;20406;-60
2023/07/23 05:14:39;;;;;;;16.90;7.25;;;21.70;99.90;;;;;;5065526;28;20040;-62
2023/07/23 05:17:43;;;;;;;13.50;7.18;;;21.70;99.90;;;;;;5071059;28;20063;-61
2023/07/23 05:20:47;;;;;;;16.60;6.65;;;21.80;99.90;;;;;;5054938;28;20040;-63
2023/07/23 05:23:51;;;;;;;12.00;6.03;;;21.80;99.90;;;;;;5051350;28;20048;-61
2023/07/23 05:26:54;;;;;;;10.35;6.38;;;21.90;99.90;;;;;;5051188;28;20048;-62
2023/07/23 05:29:58;;;;;;;11.27;6.68;;;22.70;99.90;;;;;;5051135;28;20075;-62
2023/07/23 05:33:02;;;;;;;23.75;7.45;;;24.80;99.90;;;;;;5057266;28;20045;-63
2023/07/23 05:36:06;;;;;;;16.10;6.38;;;26.60;99.90;;;;;;5059942;28;20044;-62
2023/07/23 05:39:10;;;;;;;10.30;5.70;;;27.70;99.90;;;;;;5070471;28;20244;-63
2023/07/23 05:42:14;;;;;;;10.98;5.60;;;28.80;99.90;;;;;;5059692;28;20040;-60
2023/07/23 05:45:18;;;;;;;14.55;6.18;;;29.40;99.90;;;;;;5070436;28;20415;-60
2023/07/23 05:48:22;;;;;;;10.82;5.72;;;29.70;99.90;;;;;;5070229;28;20091;-62
2023/07/23 05:51:26;;;;;;;16.23;6.43;;;29.90;99.90;;;;;;5061703;28;20056;-62
2023/07/23 05:54:30;;;;;;;14.95;7.05;;;29.40;99.90;;;;;;5070499;28;20055;-61
2023/07/23 05:57:34;;;;;;;14.02;6.38;;;29.90;99.90;;;;;;5070717;28;20043;-61
2023/07/23 06:00:38;;;;;;;12.75;6.40;;;30.10;99.90;;;;;;5070727;28;20047;-60
2023/07/23 06:03:42;;;;;;;13.80;6.22;;;30.40;99.90;;;;;;5070670;28;20036;-63
2023/07/23 06:06:46;;;;;;;10.73;6.30;;;30.30;99.90;;;;;;5070564;28;20407;-61
2023/07/23 06:09:50;;;;;;;13.68;6.00;;;30.60;99.90;;;;;;5060971;28;20040;-61
2023/07/23 06:12:54;;;;;;;14.95;5.95;;;31.20;99.90;;;;;;5030372;28;20435;-62
2023/07/23 06:15:58;;;;;;;13.20;5.57;;;31.60;99.90;;;;;;5030375;28;20507;-61
2023/07/23 06:19:03;;;;;;;14.43;6.28;;;31.80;99.90;;;;;;5030066;28;20036;-62
2023/07/23 06:22:06;;;;;;;11.93;6.00;;;31.60;99.40;;;;;;5030414;28;20049;-61
2023/07/23 06:25:11;;;;;;;8.70;5.38;;;31.40;99.90;;;;;;5030593;28;20044;-61
2023/07/23 06:28:14;;;;;;;9.18;5.07;;;31.30;99.40;;;;;;5018182;28;20056;-62
2023/07/23 06:31:19;;;;;;;15.50;6.15;;;31.40;99.20;;;;;;5029944;28;20056;-62
2023/07/23 06:34:22;;;;;;;11.60;5.57;;;30.30;99.90;;;;;;5030113;28;20053;-62
2023/07/23 06:37:26;;;;;;;10.80;5.57;;;30.00;99.90;;;;;;5030033;28;20057;-63
2023/07/23 06:40:30;;;;;;;11.35;5.40;;;30.20;99.90;;;;;;5029961;28;20061;-61
2023/07/23 06:43:34;;;;;;;9.90;5.97;;;27.80;99.90;;;;;;5030046;28;20408;-62
2023/07/23 06:46:39;;;;;;;13.18;6.10;;;27.30;99.90;;;;;;5029998;28;20040;-62
2023/07/23 06:49:43;;;;;;;13.88;5.90;;;28.90;99.90;;;;;;5057952;28;20036;-61
2023/07/23 06:52:47;;;;;;;14.18;5.88;;;29.70;99.90;;;;;;5033409;28;20052;-62
2023/07/23 06:56:03;;;;;;;14.38;5.93;;;29.80;99.90;;;;;;5033946;28;20048;-62
2023/07/23 06:59:07;;;;;;;11.80;5.85;;;30.50;99.90;;;;;;5033127;28;20041;-61
2023/07/23 07:02:11;;;;;;;11.93;6.07;;;31.00;99.90;;;;;;5033687;28;20053;-63
2023/07/23 07:05:15;;;;;;;11.15;6.13;;;31.80;99.90;;;;;;5033268;28;20412;-61
2023/07/23 07:08:19;;;;;;;11.70;5.65;;;32.00;99.90;;;;;;5033719;28;20407;-62
2023/07/23 07:11:23;;;;;;;12.07;5.65;;;32.60;99.10;;;;;;5033434;28;20511;-61
2023/07/23 07:14:26;;;;;;;8.93;5.10;;;32.50;99.00;;;;;;5033685;28;20037;-62
2023/07/23 07:17:30;;;;;;;7.35;5.03;;;33.20;99.00;;;;;;5033561;28;20052;-62
2023/07/23 07:20:34;;;;;;;9.23;5.43;;;34.00;98.20;;;;;;5033541;28;20403;-63
2023/07/23 07:23:38;;;;;;;10.45;5.35;;;35.20;97.20;;;;;;5033644;28;20519;-61
2023/07/23 07:26:42;;;;;;;13.50;5.65;;;35.30;97.00;;;;;;5033308;28;20052;-62
2023/07/23 07:29:46;;;;;;;8.98;4.68;;;36.00;96.10;;;;;;5032942;28;20048;-62
2023/07/23 07:32:52;;;;;;;11.60;6.07;;;36.50;95.40;;;;;;5032789;28;20044;-63
2023/07/23 07:35:58;;;;;;;11.70;5.70;;;34.90;96.00;;;;;;5033151;28;20048;-62
2023/07/23 07:39:02;;;;;;;14.20;5.70;;;33.60;96.70;;;;;;5033128;28;20044;-62
2023/07/23 07:42:07;;;;;;;11.18;5.72;;;33.50;97.50;;;;;;5032889;28;20045;-62
2023/07/23 07:45:14;;;;;;;12.07;5.45;;;34.70;97.00;;;;;;5032842;28;20048;-62
2023/07/23 07:48:21;;;;;;;11.57;5.32;;;35.40;96.50;;;;;;5032956;28;20052;-62
2023/07/23 07:51:24;;;;;;;17.10;5.40;;;34.90;96.20;;;;;;5032222;28;20056;-62
2023/07/23 07:54:28;;;;;;;12.50;4.80;;;35.20;96.50;;;;;;5032516;28;20052;-63
2023/07/23 07:57:33;;;;;;;11.45;5.55;;;36.10;96.50;;;;;;5032547;28;20044;-62
2023/07/23 08:00:38;;;;;;;22.60;5.32;;;33.50;97.30;;;;;;5031669;28;20052;-62
2023/07/23 08:03:42;;;;;;;8.13;4.93;;;35.00;97.10;;;;;;5036904;28;20048;-63
2023/07/23 08:06:46;;;;;;;16.05;5.50;;;35.10;96.90;;;;;;5055581;28;20048;-63
2023/07/23 08:09:53;;;;;;;10.75;5.28;;;34.70;97.20;;;;;;5052011;28;20404;-62
2023/07/23 08:12:56;;;;;;;11.10;5.18;;;36.40;95.40;;;;;;5051995;28;20048;-61
2023/07/23 08:16:01;;;;;;;14.55;5.47;;;36.90;95.10;;;;;;5052138;28;20041;-59
2023/07/23 08:19:06;;;;;;;16.23;5.63;;;36.80;94.70;;;;;;5052271;28;20048;-63
2023/07/23 08:22:10;;;;;;;12.68;4.60;;;36.90;94.80;;;;;;5052075;28;20056;-62
2023/07/23 08:25:14;;;;;;;12.25;5.20;;;37.60;94.00;;;;;;5052091;28;20052;-62
2023/07/23 08:28:22;;;;;;;12.43;4.93;;;35.60;93.50;;;;;;5052219;28;20039;-62
2023/07/23 08:31:27;;;;;;;11.07;4.97;;;36.00;94.20;;;;;;5051570;28;20044;-61
2023/07/23 08:34:31;;;;;;;13.18;4.57;;;36.80;94.80;;;;;;5052159;28;20043;-63
2023/07/23 08:37:36;;;;;;;12.93;5.00;;;37.90;92.70;;;;;;5052024;28;20526;-61
2023/07/23 08:40:45;;;;;;;9.18;4.72;;;37.60;92.10;;;;;;5051800;28;20435;-63
2023/07/23 08:44:24;;;;;;;9.20;4.72;;;38.20;91.60;;;;;;5058372;28;20036;-61
2023/07/23 08:47:35;;;;;;;8.67;4.00;;;39.20;91.10;;;;;;5019867;28;20053;-62
2023/07/23 08:50:42;;;;;;;9.23;5.40;;;40.30;90.80;;;;;;5031942;28;20773;-61
2023/07/23 08:53:48;;;;;;;14.05;5.15;;;35.50;91.30;;;;;;5031986;28;20057;-57
2023/07/23 08:56:54;;;;;;;15.30;4.35;;;37.00;91.30;;;;;;5031687;28;20032;-61
2023/07/23 08:59:59;;;;;;;10.85;4.45;;;38.70;91.10;;;;;;5056899;28;20036;-60
2023/07/23 09:03:05;;;;;;;12.85;4.90;;;40.40;90.20;;;;;;5071380;28;20055;-62
2023/07/23 09:06:10;;;;;;;12.82;4.72;;;41.70;88.00;;;;;;5071264;28;20051;-62
2023/07/23 09:09:14;;;;;;;11.23;5.20;;;38.80;89.30;;;;;;5071702;28;20048;-62
2023/07/23 09:12:18;;;;;;;10.13;5.53;;;39.10;89.80;;;;;;5070826;28;20055;-62
2023/07/23 09:15:22;;;;;;;9.77;4.30;;;38.50;90.50;;;;;;5071373;28;20506;-61
2023/07/23 09:18:26;;;;;;;14.50;5.90;;;37.20;90.50;;;;;;5069539;28;20043;-61
2023/07/23 09:21:30;;;;;;;10.50;5.00;;;36.60;91.80;;;;;;5056657;28;20055;-62
2023/07/23 09:24:34;;;;;;;13.77;5.00;;;38.10;90.50;;;;;;5071027;28;20051;-62
2023/07/23 09:27:41;;;;;;;9.30;5.28;;;37.30;90.90;;;;;;5058503;28;20056;-62
2023/07/23 09:30:45;;;;;;;11.57;4.55;;;37.40;91.60;;;;;;5059450;28;20052;-61
2023/07/23 09:33:53;;;;;;;9.23;4.65;;;39.70;90.10;;;;;;5035817;28;20075;-63
2023/07/23 09:36:57;;;;;;;14.90;5.20;;;41.00;88.80;;;;;;5055036;28;20119;-62
2023/07/23 09:40:02;;;;;;;12.75;5.22;;;38.30;91.30;;;;;;5057274;28;20534;-62
2023/07/23 09:43:07;;;;;;;12.73;4.55;;;39.00;90.30;;;;;;5066954;28;20051;-61
2023/07/23 09:46:11;;;;;;;13.35;5.53;;;41.50;87.80;;;;;;5069662;28;20434;-61
2023/07/23 09:49:15;;;;;;;13.80;5.45;;;40.50;88.20;;;;;;5069603;28;20055;-62
2023/07/23 09:52:26;;;;;;;13.35;5.15;;;40.00;88.50;;;;;;5069401;28;20047;-61
2023/07/23 09:55:31;;;;;;;18.50;5.00;;;39.20;89.90;;;;;;5069597;28;20415;-60
2023/07/23 09:58:37;;;;;;;12.60;5.10;;;41.40;87.90;;;;;;5069500;28;20071;-62
2023/07/23 10:01:42;;;;;;;11.82;4.90;;;41.00;86.20;;;;;;5060836;28;20047;-61
2023/07/23 10:04:47;;;;;;;9.20;4.68;;;39.70;86.40;;;;;;5059753;28;20051;-62
2023/07/23 10:07:53;;;;;;;11.30;6.20;;;42.30;85.50;;;;;;5069310;28;20052;-61
2023/07/23 10:10:57;;;;;;;11.95;5.60;;;42.80;82.30;;;;;;5056783;28;20048;-62
2023/07/23 10:14:02;;;;;;;11.55;5.55;;;43.30;82.90;;;;;;5069259;28;20411;-62
2023/07/23 10:17:07;;;;;;;10.43;5.10;;;42.30;84.00;;;;;;5069067;28;20509;-62
2023/07/23 10:20:14;;;;;;;14.85;5.95;;;42.90;81.90;;;;;;5069297;28;20119;-59
2023/07/23 10:23:20;;;;;;;11.40;5.10;;;40.50;83.90;;;;;;5071342;28;20051;-62
2023/07/23 10:26:39;;;;;;;15.52;5.88;;;43.10;81.40;;;;;;5073031;28;20565;-60
2023/07/23 10:30:17;;;;;;;15.15;5.78;;;43.60;80.90;;;;;;5073285;28;20044;-60
2023/07/23 10:33:29;;;;;;;16.58;6.82;;;42.60;80.20;;;;;;5072261;28;20422;-61
2023/07/23 10:37:14;;;;;;;11.38;6.03;;;38.30;85.00;;;;;;5069179;28;20036;-59
2023/07/23 10:40:46;;;;;;;14.30;6.63;;;40.00;83.30;;;;;;5060891;28;20064;-61
2023/07/23 10:43:52;;;;;;;10.13;6.32;;;40.30;80.80;;;;;;5052726;28;20051;-62
2023/07/23 10:46:58;;;;;;;14.27;6.75;;;41.80;79.80;;;;;;5057724;28;20040;-62
2023/07/23 10:50:13;;;;;;;16.42;7.43;;;39.30;82.30;;;;;;5033255;28;20388;-63
2023/07/23 10:53:17;;;;;;;15.18;7.88;;;40.10;81.70;;;;;;5032385;28;20045;-63
2023/07/23 10:56:22;;;;;;;11.60;7.38;;;40.10;81.80;;;;;;5032871;28;20274;-61
2023/07/23 10:59:26;;;;;;;11.50;7.65;;;40.90;79.70;;;;;;5032980;28;20400;-64
2023/07/23 11:02:30;;;;;;;12.30;7.80;;;42.20;79.10;;;;;;5032466;28;20049;-62
2023/07/23 11:05:40;;;;;;;13.55;8.18;;;40.20;78.60;;;;;;5057303;22;20040;-55
2023/07/23 11:08:48;;;;;;;14.43;8.27;;;38.70;80.90;;;;;;5067017;28;20035;-55
2023/07/23 11:11:53;;;;;;;14.20;7.97;;;38.40;81.20;;;;;;5067810;28;20056;-56
2023/07/23 11:14:58;;;;;;;13.73;7.22;;;40.60;79.30;;;;;;5069281;28;20047;-55
2023/07/23 11:18:02;;;;;;;16.67;8.52;;;42.30;78.10;;;;;;5072460;28;20498;-53
2023/07/23 11:21:14;;;;;;;15.55;9.18;;;38.30;79.80;;;;;;5072326;28;20048;-57
2023/07/23 11:24:19;;;;;;;13.45;7.97;;;38.90;79.60;;;;;;5071712;28;20052;-56
2023/07/23 11:27:24;;;;;;;12.80;8.75;;;40.20;77.80;;;;;;5072217;28;20039;-51
2023/07/23 11:30:31;;;;;;;12.85;9.07;;;38.50;78.60;;;;;;5071573;28;20039;-55
2023/07/23 11:33:35;;;;;;;13.20;9.05;;;37.40;81.00;;;;;;5071042;28;20055;-51
2023/07/23 11:36:40;;;;;;;12.90;9.05;;;37.80;79.20;;;;;;5072484;28;20090;-55
2023/07/23 11:39:50;;;;;;;14.82;8.60;;;38.30;78.70;;;;;;5072197;28;20035;-54
2023/07/23 11:42:54;;;;;;;14.48;8.35;;;40.00;77.40;;;;;;5071462;28;20051;-56
2023/07/23 11:45:59;;;;;;;14.75;9.57;;;41.00;76.30;;;;;;5071848;28;20051;-52
2023/07/23 11:49:11;;;;;;;17.48;10.23;;;38.30;75.60;;;;;;5071792;28;20059;-56
2023/07/23 11:52:24;;;;;;;16.90;11.15;;;38.40;76.50;;;;;;5071343;28;20051;-55
2023/07/23 11:55:29;;;;;;;17.52;10.88;;;37.40;76.60;;;;;;5071737;28;20039;-55
2023/07/23 11:58:34;;;;;;;15.52;10.63;;;36.30;77.20;;;;;;5071519;28;20036;-54
2023/07/23 12:01:40;;;;;;;16.80;10.45;;;35.60;77.70;;;;;;5071343;28;20043;-55
2023/07/23 12:04:44;;;;;;;16.45;10.57;;;36.40;77.70;;;;;;5065896;28;20036;-54
2023/07/23 12:07:50;;;;;;;16.83;10.88;;;35.30;79.20;;;;;;5051535;28;20055;-54
2023/07/23 12:10:55;;;;;;;16.40;10.70;;;37.10;78.40;;;;;;5051314;28;20059;-51
2023/07/23 12:14:05;;;;;;;17.30;10.35;;;36.60;78.70;;;;;;5050900;28;20052;-55
2023/07/23 12:17:11;;;;;;;17.55;10.57;;;36.90;78.60;;;;;;5051261;28;20048;-53
2023/07/23 12:20:17;;;;;;;20.42;10.10;;;35.40;82.20;;;;;;5051262;28;20052;-56
2023/07/23 12:23:21;;;;;;;23.80;10.73;;;35.80;81.20;;;;;;5050287;28;20040;-56
2023/07/23 12:26:25;;;;;;;16.23;10.02;;;36.50;79.00;;;;;;5051141;28;20431;-55
2023/07/23 12:29:29;;;;;;;18.27;10.23;;;38.20;78.70;;;;;;5051131;28;20606;-55
2023/07/23 12:32:34;;;;;;;16.65;9.48;;;39.20;78.10;;;;;;5050720;28;20061;-55
2023/07/23 12:35:38;;;;;;;15.88;9.80;;;39.70;77.60;;;;;;5038848;28;20112;-55
2023/07/23 12:38:43;;;;;;;18.27;9.75;;;39.10;77.00;;;;;;5050903;28;20044;-54
2023/07/23 12:41:47;;;;;;;41.78;10.93;;;38.50;77.20;;;;;;5050624;28;20040;-55
2023/07/23 12:44:51;;;;;;;19.67;10.77;;;40.00;75.90;;;;;;5049702;28;20044;-57
2023/07/23 12:47:55;;;;;;;16.80;10.30;;;39.00;76.00;;;;;;5050920;28;20044;-55
2023/07/23 12:50:59;;;;;;;20.83;12.00;;;39.50;74.90;;;;;;5050751;28;20040;-57
2023/07/23 12:54:03;;;;;;;19.15;10.73;;;37.50;76.30;;;;;;5050361;28;20044;-53
2023/07/23 12:57:12;;;;;;;20.95;11.43;;;37.10;78.20;;;;;;5050865;28;20048;-52
2023/07/23 13:00:18;;;;;;;22.42;11.18;;;36.40;79.20;;;;;;5050824;28;20068;-53
2023/07/23 13:03:22;;;;;;;17.88;11.32;;;36.10;79.50;;;;;;5050114;28;20064;-55
2023/07/23 13:06:26;;;;;;;23.98;12.32;;;37.40;79.40;;;;;;5038307;28;20056;-56
2023/07/23 13:09:31;;;;;;;19.58;11.07;;;37.80;77.10;;;;;;5050652;28;20048;-52
2023/07/23 13:12:37;;;;;;;18.17;11.98;;;37.40;78.30;;;;;;5049967;28;20052;-52
2023/07/23 13:15:41;;;;;;;22.63;13.27;;;36.40;78.60;;;;;;5050200;28;20056;-52
2023/07/23 13:18:46;;;;;;;20.23;13.07;;;35.40;79.40;;;;;;5050118;28;20411;-55
2023/07/23 13:21:50;;;;;;;19.65;12.88;;;34.70;78.60;;;;;;5064741;28;20043;-55
2023/07/23 13:24:54;;;;;;;19.77;12.60;;;34.50;77.60;;;;;;5066267;28;20059;-55
2023/07/23 13:27:58;;;;;;;22.60;12.90;;;34.90;79.30;;;;;;5070320;28;20521;-51
2023/07/23 13:31:02;;;;;;;22.00;12.93;;;36.60;76.90;;;;;;5069957;28;20056;-52
2023/07/23 13:34:06;;;;;;;17.75;11.88;;;37.50;77.00;;;;;;5069898;28;20415;-50
2023/07/23 13:37:10;;;;;;;19.13;12.98;;;37.20;77.30;;;;;;5070064;28;20052;-52
2023/07/23 13:40:14;;;;;;;19.52;12.98;;;37.40;76.70;;;;;;5070228;28;20502;-55
2023/07/23 13:43:18;;;;;;;22.98;12.07;;;37.60;76.10;;;;;;5069530;28;20058;-54
2023/07/23 13:46:22;;;;;;;22.13;13.18;;;38.00;75.80;;;;;;5069862;28;20082;-52
2023/07/23 13:49:46;;;;;;;20.67;13.88;;;36.30;76.00;;;;;;5069465;28;20043;-55
2023/07/23 13:53:09;;;;;;;24.25;13.48;;;35.60;78.60;;;;;;5068997;28;20608;-52
2023/07/23 13:56:13;;;;;;;21.23;14.30;;;35.80;77.10;;;;;;5069372;28;20534;-53
2023/07/23 13:59:18;;;;;;;24.25;13.75;;;35.30;76.00;;;;;;5069658;28;20353;-56
2023/07/23 14:02:22;;;;;;;19.70;13.38;;;35.20;77.80;;;;;;5068979;28;20055;-55
2023/07/23 14:05:28;;;;;;;42.90;15.10;;;36.00;75.00;;;;;;5066293;28;20048;-53
2023/07/23 14:08:33;;;;;;;25.15;14.65;;;35.90;77.30;;;;;;5062657;28;20518;-53
2023/07/23 14:11:38;;;;;;;25.77;15.40;;;35.30;76.40;;;;;;5069090;28;20415;-52
2023/07/23 14:14:42;;;;;;;22.10;14.38;;;35.40;77.00;;;;;;5068982;28;20684;-55
2023/07/23 14:17:46;;;;;;;22.33;15.73;;;35.70;75.30;;;;;;5069576;28;20043;-56
2023/07/23 14:20:50;;;;;;;25.77;15.82;;;36.10;73.10;;;;;;5069311;28;20047;-53
2023/07/23 14:23:55;;;;;;;22.25;14.75;;;36.30;73.80;;;;;;5069279;28;20044;-53
2023/07/23 14:26:59;;;;;;;24.80;14.57;;;36.10;72.60;;;;;;5068916;28;20047;-53
2023/07/23 14:30:03;;;;;;;21.38;14.23;;;36.40;73.50;;;;;;5069254;28;20055;-54
2023/07/23 14:33:07;;;;;;;26.23;14.63;;;36.80;74.40;;;;;;5068860;28;20047;-54
2023/07/23 14:36:11;;;;;;;24.83;14.45;;;37.00;72.20;;;;;;5068870;28;20055;-57
2023/07/23 14:39:15;;;;;;;19.45;13.88;;;36.70;74.70;;;;;;5069187;28;20048;-53
2023/07/23 14:42:20;;;;;;;19.75;14.02;;;36.80;72.20;;;;;;5068787;28;20039;-53
2023/07/23 14:45:24;;;;;;;21.15;13.95;;;37.00;72.70;;;;;;5068411;28;20526;-57
2023/07/23 14:48:28;;;;;;;19.40;14.30;;;36.90;71.80;;;;;;5069118;28;20055;-52
2023/07/23 14:51:32;;;;;;;21.60;14.75;;;36.70;71.40;;;;;;5068870;28;20054;-55
2023/07/23 14:54:38;;;;;;;26.65;15.73;;;36.60;70.70;;;;;;5068716;28;20048;-55
2023/07/23 14:57:44;;;;;;;22.60;15.68;;;36.10;71.70;;;;;;5068721;28;20395;-55
2023/07/23 15:00:48;;;;;;;23.85;15.63;;;36.10;72.30;;;;;;5068693;28;20040;-58
2023/07/23 15:03:52;;;;;;;22.10;15.57;;;36.20;70.50;;;;;;5069715;28;20040;-57
2023/07/23 15:06:56;;;;;;;24.13;16.08;;;36.20;70.30;;;;;;5068658;28;20514;-53
2023/07/23 15:10:00;;;;;;;22.05;16.42;;;35.90;68.80;;;;;;5071808;28;20036;-55
2023/07/23 15:13:05;;;;;;;25.05;16.95;;;35.90;70.10;;;;;;5069368;28;20052;-57
2023/07/23 15:16:09;;;;;;;25.42;16.27;;;35.70;67.90;;;;;;5073731;28;20047;-53
2023/07/23 15:19:15;;;;;;;27.33;17.30;;;35.80;70.50;;;;;;5071869;28;20090;-53
2023/07/23 15:22:25;;;;;;;28.15;17.80;;;35.80;69.10;;;;;;5072080;28;20039;-55
2023/07/23 15:25:30;;;;;;;26.05;17.33;;;35.50;68.10;;;;;;5080062;28;20039;-55
2023/07/23 15:28:36;;;;;;;27.80;16.35;;;35.60;69.30;;;;;;5064954;28;20044;-53
2023/07/23 15:31:40;;;;;;;27.05;18.50;;;35.70;68.50;;;;;;5070652;28;20047;-54
2023/07/23 15:34:44;;;;;;;25.55;17.83;;;35.60;69.40;;;;;;5070793;28;20044;-54
2023/07/23 15:37:48;;;;;;;25.52;17.90;;;35.70;70.50;;;;;;5070610;28;20414;-57
2023/07/23 15:40:53;;;;;;;27.48;17.90;;;35.70;68.80;;;;;;5070753;28;20502;-55
2023/07/23 15:43:57;;;;;;;25.88;16.95;;;35.50;69.10;;;;;;5071055;28;20043;-54
2023/07/23 15:47:01;;;;;;;27.52;17.23;;;35.50;70.30;;;;;;5070744;28;20039;-53
2023/07/23 15:50:08;;;;;;;30.45;17.92;;;35.40;69.10;;;;;;5072050;28;20415;-57